Sabadell Airport

Airport
ICAO code: 
LELL
IATA Code: 
QSA
Summary
ICAO Region: 
EUR
Territory: 
Location: 
Sabadell, Catalonia
Serving: 
Sabadell
Elevation: 
485 ft
Coordinates: 
Aerial View: 
41° 31' 10.362" N, 2° 6' 15.726" E
Metar
Observation
LELL 261000Z 00000KT 9000 NSC 08/03 Q1031
Station
Sabadell
Date/Time
2022-01-26 10:00:00
Wind direction
Wind speed
00 kts
Lowest cloud amount
nil significant cloud
Temperature
8°C
Dew point
3°C
Humidity
70%
QNH
1031 hPa
Weather condition
n/a

Sabadell Airport is located next to the city of Sabadell, 20 km north of Barcelona's city center.

Climatology

Dry-summer subtropical ”Mediterranean" climate (Köppen climate classification Csa) - characterized by hot, dry summers and mild winters. During the summer, subtropical high pressure cells dominate, making rainfall unlikely except for the occasional thunderstorm. In the winter, periodic storms bring rain (snow at higher elevations).

Runways

Designator Length Width Surface Rops
13/31 900 0 UNK No/No
Airport map: 
Aerial View: 

SKYbrary Partners:

Safety knowledge contributed by: